Latest Weather Observations for Bega

IDN60801

Issued at 9:32 pm EST Wednesday 29 July 2015 (issued every 30 minutes, with the page automatically refreshed every 10 minutes)

About weather observations | Map of weather stations | Latest weather observations for NSW | Other Formats
Station Details ID: 069139 Name: BEGA AWS Lat: -36.67 Lon: 149.82 Height: 41.0 m
Data from the previous 72 hours. | See also: Recent months at Bega
Date/Time
EST
Temp
°C
App
Temp
°C
Dew
Point
Rel
Hum
%
Delta-T
°C
Wind Press
QNH
hPa
Press
MSL
hPa
Rain
since 9 am
mm
Dir
 
Spd
km/h
Gust
km/h
Spd
kts
Gust
kts
29/09:30pm 7.5 6.6 6.0 90 0.7 CALM 0 0 0 0 1028.6 1028.7 0.0
29/09:00pm 7.5 6.5 5.8 89 0.8 CALM 0 0 0 0 1028.8 1028.9 0.0
29/08:30pm 8.4 7.5 5.9 84 1.1 CALM 0 0 0 0 1029.2 1029.3 0.0
29/08:00pm 8.6 7.7 6.1 84 1.1 CALM 0 0 0 0 1029.3 1029.4 0.0
29/07:30pm 9.0 8.1 5.9 81 1.4 CALM 0 0 0 0 1029.7 1029.8 0.0
29/07:00pm 9.8 8.9 6.0 77 1.7 CALM 0 0 0 0 1029.7 1029.8 0.0
29/06:30pm 10.2 9.3 6.0 75 1.9 CALM 0 0 0 0 1029.4 1029.5 0.0
29/06:00pm 10.8 8.7 6.0 72 2.2 ENE 6 9 3 5 1029.3 1029.4 0.0
29/05:30pm 11.2 9.1 5.9 70 2.5 ENE 6 7 3 4 1029.4 1029.5 0.0
29/05:00pm 11.3 9.0 5.8 69 2.5 ENE 7 11 4 6 1029.0 1029.1 0.0
29/04:30pm 12.0 8.7 6.3 68 2.7 ENE 13 17 7 9 1028.9 1029.0 0.0
29/04:00pm 13.0 9.3 6.4 64 3.1 ENE 15 20 8 11 1028.9 1029.0 0.0
29/03:30pm 14.0 9.9 6.4 60 3.7 NE 17 22 9 12 1029.2 1029.3 0.0
29/03:00pm 14.4 9.4 6.3 58 3.9 NE 22 30 12 16 1028.8 1028.9 0.0
29/02:30pm 15.0 10.5 6.8 58 4.0 NE 20 30 11 16 1028.8 1028.9 0.0
29/02:00pm 15.2 10.2 6.5 56 4.2 NE 22 28 12 15 1029.0 1029.1 0.0
29/01:30pm 15.6 11.5 6.1 53 4.6 ENE 17 24 9 13 1029.6 1029.7 0.0
29/01:00pm 16.0 12.7 6.2 52 4.7 NE 13 17 7 9 1030.3 1030.4 0.0
29/12:30pm 15.0 12.4 6.0 55 4.3 NE 9 13 5 7 1031.0 1031.1 0.0
29/12:00pm 14.9 12.8 6.0 55 4.2 NE 6 9 3 5 1031.7 1031.8 0.0
29/11:30am 13.3 11.5 5.5 59 3.6 SSE 4 9 2 5 1032.5 1032.6 0.0
29/11:00am 12.0 9.8 5.4 64 3.0 E 6 9 3 5 1033.1 1033.2 0.0
29/10:30am 9.9 8.5 5.3 73 2.1 N 2 7 1 4 1033.7 1033.8 0.0
29/10:00am 8.2 6.6 4.4 77 1.6 ENE 2 7 1 4 1034.1 1034.2 0.0
29/09:30am 5.8 4.5 4.1 89 0.7 CALM 0 0 0 0 1034.6 1034.7 0.0
29/09:00am 4.3 2.1 3.4 94 0.4 ENE 4 7 2 4 1034.7 1034.8 0.0
29/08:30am 1.1 -0.8 0.7 97 0.1 CALM 0 0 0 0 1034.7 1034.8 0.0
29/08:00am 0.6 -1.3 0.5 99 0.0 CALM 0 0 0 0 1034.5 1034.6 0.0
29/07:30am 1.0 -1.2 0.9 99 0.0 N 2 6 1 3 1034.4 1034.5 0.0
29/07:00am -0.4 -2.5 -0.5 99 0.0 CALM 0 0 0 0 1034.2 1034.3 0.0
29/06:30am -0.8 -2.9 -0.9 99 0.0 CALM 0 0 0 0 1033.7 1033.8 0.0
29/06:00am 0.0 -2.0 -0.1 99 0.0 CALM 0 0 0 0 1033.4 1033.5 0.0
29/05:30am 0.2 -1.8 0.1 99 0.0 CALM 0 0 0 0 1033.3 1033.4 0.0
29/05:00am 0.0 -2.0 -0.3 98 0.1 CALM 0 0 0 0 1033.2 1033.3 0.0
29/04:30am 0.9 -1.0 0.8 99 0.0 CALM 0 0 0 0 1032.8 1032.9 0.0
29/04:00am 0.3 -2.1 0.0 98 0.1 SE 2 6 1 3 1033.0 1033.1 0.0
29/03:30am 0.6 -2.1 0.3 98 0.1 S 4 7 2 4 1032.9 1033.0 0.0
29/03:00am 1.1 -0.8 0.7 97 0.1 CALM 0 6 0 3 1032.8 1032.9 0.0
29/02:30am 2.2 0.5 1.9 98 0.1 CALM 0 0 0 0 1033.1 1033.2 0.0
29/02:00am 1.5 -0.3 0.9 96 0.2 CALM 0 0 0 0 1033.4 1033.5 0.0
29/01:30am 2.2 -0.3 1.5 95 0.3 NNE 4 7 2 4 1033.5 1033.6 0.0
29/01:00am 2.1 -0.5 1.1 93 0.4 E 4 9 2 5 1033.5 1033.6 0.0
29/12:30am 3.9 2.0 3.0 94 0.4 WSW 2 7 1 4 1033.4 1033.5 0.0
29/12:00am 2.6 0.6 2.2 97 0.2 ENE 2 6 1 3 1033.5 1033.6 0.0
 
Date/Time
EST
Temp
°C
App
Temp
°C
Dew
Point
Rel
Hum
%
Delta-T
°C
Wind Press
QNH
hPa
Press
MSL
hPa
Rain
since 9 am
mm
Dir
 
Spd
km/h
Gust
km/h
Spd
kts
Gust
kts
28/11:30pm 2.6 -0.3 1.7 94 0.3 SSE 6 7 3 4 1033.5 1033.6 0.0
28/11:00pm 3.6 1.2 2.0 89 0.6 NNW 4 7 2 4 1033.4 1033.5 0.0
28/10:30pm 3.1 0.3 1.9 92 0.5 E 6 9 3 5 1033.5 1033.6 0.0
28/10:00pm 5.2 3.7 3.2 87 0.8 CALM 0 0 0 0 1033.4 1033.5 0.0
28/09:30pm 5.8 4.0 3.6 86 0.9 SSW 2 6 1 3 1033.6 1033.7 0.0
28/09:00pm 4.7 2.0 2.4 85 0.9 ENE 6 11 3 6 1033.5 1033.6 0.0
28/08:30pm 6.5 4.7 3.5 81 1.3 ENE 2 7 1 4 1033.3 1033.4 0.0
28/08:00pm 8.3 5.2 3.8 73 1.9 WSW 9 13 5 7 1032.9 1033.0 0.0
28/07:30pm 8.3 6.5 3.4 71 2.1 S 2 7 1 4 1032.7 1032.8 0.0
28/07:00pm 10.4 8.6 3.4 62 3.0 SW 2 7 1 4 1032.5 1032.6 0.0
28/06:30pm 11.3 7.4 3.6 59 3.4 WSW 13 15 7 8 1031.9 1032.0 0.0
28/06:00pm 12.5 8.7 3.7 55 3.9 WSW 13 20 7 11 1031.7 1031.8 0.0
28/05:30pm 12.5 8.7 3.7 55 3.9 WSW 13 20 7 11 1031.4 1031.5 0.0
28/05:00pm 13.4 9.6 4.0 53 4.2 SW 13 19 7 10 1031.0 1031.1 0.0
28/04:30pm 14.1 9.4 3.3 48 4.9 SW 17 24 9 13 1030.6 1030.7 0.0
28/04:00pm 14.1 8.0 3.0 47 4.9 WSW 24 33 13 18 1030.2 1030.3 0.0
28/03:30pm 14.6 9.2 4.3 50 4.8 SW 22 35 12 19 1030.2 1030.3 0.0
28/03:00pm 15.2 9.1 4.6 49 4.9 SSW 26 39 14 21 1030.0 1030.1 0.0
28/02:30pm 16.6 11.8 4.9 46 5.6 SW 19 28 10 15 1029.8 1029.9 0.0
28/02:00pm 15.3 9.5 4.4 48 5.0 SW 24 33 13 18 1029.8 1029.9 0.0
28/01:30pm 15.0 9.3 4.7 50 4.8 SSW 24 30 13 16 1029.9 1030.0 0.0
28/01:00pm 14.8 9.8 4.8 51 4.6 SW 20 26 11 14 1030.1 1030.2 0.0
28/12:30pm 15.0 9.6 4.4 49 4.9 SSW 22 30 12 16 1030.4 1030.5 0.0
28/12:00pm 16.0 10.6 4.7 47 5.3 SW 22 28 12 15 1030.7 1030.8 0.0
28/11:30am 15.0 8.4 4.4 49 4.9 SW 28 46 15 25 1031.1 1031.2 0.0
28/11:00am 15.3 10.0 5.2 51 4.7 WSW 22 35 12 19 1031.4 1031.5 0.0
28/10:30am 14.6 9.8 5.4 54 4.4 WSW 20 35 11 19 1031.5 1031.6 0.0
28/10:00am 13.7 6.8 4.8 55 4.1 WSW 30 41 16 22 1031.2 1031.3 0.0
28/09:30am 13.7 8.7 4.6 54 4.2 W 20 32 11 17 1031.1 1031.2 0.0
28/09:00am 13.0 8.6 4.7 57 3.8 W 17 26 9 14 1031.2 1031.3 0.0
28/08:30am 12.3 7.4 4.3 58 3.6 W 19 28 10 15 1030.8 1030.9 0.0
28/08:00am 11.6 6.7 3.9 59 3.4 W 19 28 10 15 1030.5 1030.6 0.0
28/07:30am 11.2 5.6 3.5 59 3.4 WSW 22 30 12 16 1030.1 1030.2 0.0
28/07:00am 11.2 3.6 3.0 57 3.5 WSW 32 44 17 24 1029.5 1029.6 0.0
28/06:30am 11.1 3.9 2.9 57 3.6 WSW 30 39 16 21 1029.0 1029.1 0.0
28/06:00am 11.2 5.1 2.8 56 3.6 WSW 24 37 13 20 1028.7 1028.8 0.0
28/05:30am 11.0 5.3 2.6 56 3.6 WSW 22 35 12 19 1028.3 1028.4 0.0
28/05:00am 10.6 6.5 2.4 57 3.5 SW 13 24 7 13 1028.3 1028.4 0.0
28/04:30am 9.8 6.9 1.7 57 3.4 E 6 11 3 6 1027.7 1027.8 0.0
28/04:00am 10.2 7.1 1.6 55 3.6 W 7 15 4 8 1027.5 1027.6 0.0
28/03:30am 10.6 6.0 1.7 54 3.7 WSW 15 22 8 12 1027.3 1027.4 0.0
28/03:00am 10.5 6.7 1.6 54 3.7 W 11 19 6 10 1027.2 1027.3 0.0
28/02:30am 10.5 7.1 1.6 54 3.7 W 9 17 5 9 1027.5 1027.6 0.0
28/02:00am 10.9 7.4 1.4 52 4.0 WSW 9 19 5 10 1027.4 1027.5 0.0
28/01:30am 11.0 6.4 1.5 52 4.0 WSW 15 22 8 12 1027.4 1027.5 0.0
28/01:00am 10.4 6.9 1.5 54 3.7 NW 9 13 5 7 1027.2 1027.3 0.0
28/12:30am 10.8 7.7 1.4 52 3.9 WNW 7 15 4 8 1026.9 1027.0 0.0
28/12:00am 11.0 6.8 1.5 52 4.0 WSW 13 24 7 13 1026.8 1026.9 0.0
 
Date/Time
EST
Temp
°C
App
Temp
°C
Dew
Point
Rel
Hum
%
Delta-T
°C
Wind Press
QNH
hPa
Press
MSL
hPa
Rain
since 9 am
mm
Dir
 
Spd
km/h
Gust
km/h
Spd
kts
Gust
kts
27/11:30pm 10.8 5.9 1.9 54 3.8 WSW 17 26 9 14 1026.8 1026.9 0.0
27/11:00pm 10.4 5.0 2.3 57 3.4 WSW 20 28 11 15 1026.8 1026.9 0.0
27/10:30pm 10.1 6.4 2.2 58 3.4 SW 11 13 6 7 1027.0 1027.1 0.0
27/10:00pm 10.6 6.1 2.2 56 3.6 SW 15 24 8 13 1026.9 1027.0 0.0
27/09:30pm 11.2 5.7 2.0 53 3.9 SW 20 37 11 20 1027.0 1027.1 0.0
27/09:00pm 10.7 7.2 1.3 52 3.9 WSW 9 19 5 10 1026.6 1026.7 0.0
27/08:30pm 10.8 6.4 0.5 49 4.2 SW 13 19 7 10 1026.4 1026.5 0.0
27/08:00pm 10.8 5.6 0.2 48 4.3 WSW 17 24 9 13 1026.0 1026.1 0.0
27/07:30pm 11.2 5.4 -0.3 45 4.7 SW 20 32 11 17 1025.7 1025.8 0.0
27/07:00pm 10.3 5.4 -0.5 47 4.3 WSW 15 20 8 11 1025.5 1025.6 0.0
27/06:30pm 10.7 5.8 -0.4 46 4.5 W 15 20 8 11 1025.3 1025.4 0.0
27/06:00pm 11.6 6.2 -1.2 41 5.1 WSW 17 24 9 13 1024.9 1025.0 0.0
27/05:30pm 10.8 6.3 0.0 47 4.4 W 13 20 7 11 1024.3 1024.4 0.0
27/05:00pm 12.4 6.7 -1.1 39 5.4 WSW 19 24 10 13 1024.0 1024.1 0.0
27/04:30pm 13.2 7.4 -1.2 37 5.8 SW 19 24 10 13 1023.7 1023.8 0.0
27/04:00pm 14.0 8.1 -0.8 36 6.1 SW 20 30 11 16 1023.3 1023.4 0.0
27/03:30pm 14.5 7.8 -1.2 34 6.4 SW 24 37 13 20 1023.0 1023.1 0.0
27/03:00pm 14.4 7.4 -0.5 36 6.2 SW 26 41 14 22 1022.7 1022.8 0.0
27/02:30pm 14.5 6.8 -0.4 36 6.2 WSW 30 48 16 26 1022.3 1022.4 0.0
27/02:00pm 13.9 4.3 -1.3 35 6.2 SW 39 65 21 35 1022.2 1022.3 0.0
27/01:31pm 13.9 6.0 -1.3 35 6.2 SW 30 54 16 29 1022.1 1022.2 0.0
27/01:30pm 14.3 6.9 -0.9 35 6.3 SW 28 44 15 24 1022.2 1022.3 0.0
27/01:01pm 14.3 7.2 1.2 41 5.6 SW 28 48 15 26 1022.3 1022.4 0.0
27/01:00pm 14.3 6.5 1.6 42 5.5 SW 32 48 17 26 1022.3 1022.4 0.0
27/12:30pm 13.5 4.6 0.5 41 5.5 WSW 37 59 20 32 1022.5 1022.6 0.0
27/12:00pm 13.6 5.6 0.6 41 5.5 WSW 32 52 17 28 1022.9 1023.0 0.0
27/11:30am 12.9 4.3 0.3 42 5.3 SW 35 61 19 33 1023.2 1023.3 0.0
27/11:00am 12.7 5.0 -0.2 41 5.3 SW 30 52 16 28 1022.9 1023.0 0.0
27/10:39am 12.7 5.0 -0.2 41 5.3 WSW 30 52 16 28 1023.0 1023.1 0.0
27/10:30am 12.7 5.8 0.1 42 5.2 WSW 26 43 14 23 1022.8 1022.9 0.0
27/10:16am 12.1 4.7 -0.7 41 5.2 SW 28 46 15 25 1022.6 1022.7 0.0
27/10:00am 11.7 5.0 -0.8 42 5.0 WSW 24 43 13 23 1022.5 1022.6 0.0
27/09:30am 11.1 5.7 -1.3 42 4.9 WSW 17 28 9 15 1022.4 1022.5 0.0
27/09:00am 10.9 4.9 -1.5 42 4.8 WSW 20 33 11 18 1022.1 1022.2 0.0
27/08:30am 10.3 4.8 -2.0 42 4.7 WSW 17 22 9 12 1022.1 1022.2 0.0
27/08:00am 10.0 4.5 -2.0 43 4.6 W 17 30 9 16 1021.6 1021.7 0.0
27/07:30am 9.4 4.6 -2.2 44 4.4 WSW 13 22 7 12 1021.2 1021.3 0.0
27/07:00am 8.8 3.7 -2.2 46 4.1 WSW 15 26 8 14 1020.7 1020.7 0.0
27/06:30am 8.6 3.8 -2.6 45 4.2 W 13 22 7 12 1020.1 1020.1 0.0
27/06:00am 7.9 3.9 -2.4 48 3.8 NW 9 15 5 8 1019.6 1019.6 0.0
27/05:30am 9.2 3.6 -2.7 43 4.5 W 17 30 9 16 1019.3 1019.3 0.0
27/05:00am 9.3 2.7 -2.9 42 4.5 WSW 22 33 12 18 1019.1 1019.1 0.0
27/04:30am 8.8 3.9 -3.1 43 4.4 WSW 13 20 7 11 1019.0 1019.0 0.0
27/04:00am 9.3 2.4 -2.9 42 4.5 WSW 24 39 13 21 1018.5 1018.5 0.0
27/03:30am 9.1 2.9 -3.4 41 4.6 WSW 20 35 11 19 1018.1 1018.1 0.0
27/03:00am 9.7 2.7 -3.2 40 4.8 W 24 35 13 19 1017.7 1017.7 0.0
27/02:30am 9.6 3.6 -3.3 40 4.8 W 19 28 10 15 1017.4 1017.4 0.0
27/02:00am 10.1 3.8 -3.6 38 5.1 W 20 35 11 19 1017.3 1017.3 0.0
27/01:30am 9.9 3.7 -3.0 40 4.8 W 20 28 11 15 1017.2 1017.2 0.0
27/01:00am 9.9 3.7 -3.4 39 4.9 W 20 35 11 19 1017.1 1017.1 0.0
27/12:30am 10.1 3.5 -3.6 38 5.1 WSW 22 43 12 23 1016.8 1016.8 0.0
27/12:00am 9.6 3.4 -3.3 40 4.8 WSW 20 33 11 18 1016.9 1016.9 0.0
 
Date/Time
EST
Temp
°C
App
Temp
°C
Dew
Point
Rel
Hum
%
Delta-T
°C
Wind Press
QNH
hPa
Press
MSL
hPa
Rain
since 9 am
mm
Dir
 
Spd
km/h
Gust
km/h
Spd
kts
Gust
kts
26/11:30pm 9.6 2.2 -3.3 40 4.8 WSW 26 39 14 21 1016.7 1016.7 0.0
26/11:22pm 9.7 2.0 -3.2 40 4.8 WSW 28 46 15 25 1016.5 1016.5 0.0
26/11:00pm 9.6 2.2 -3.3 40 4.8 WSW 26 35 14 19 1016.5 1016.5 0.0
26/10:30pm 9.7 2.0 -3.2 40 4.8 WSW 28 48 15 26 1016.3 1016.3 0.0
26/10:13pm 10.1 2.4 -3.2 39 5.0 W 28 46 15 25 1016.1 1016.1 0.0
26/10:00pm 10.0 2.6 -3.3 39 4.9 W 26 41 14 22 1016.1 1016.1 0.0

Other Formats:

Comma delimited format used in spreadsheet applications
http://www.bom.gov.au/fwo/IDN60801/IDN60801.95931.axf

JavaScript Object Notation format (JSON) in row-major order
http://www.bom.gov.au/fwo/IDN60801/IDN60801.95931.json